sensor_id;sensor_type;location;lat;lon;timestamp;P1;durP1;ratioP1;P2;durP2;ratioP2
35636;SDS011;21758;43.542;1.462;2022-07-26T00:01:20;6.30;;;2.03;;
35636;SDS011;21758;43.542;1.462;2022-07-26T00:03:46;8.68;;;1.83;;
35636;SDS011;21758;43.542;1.462;2022-07-26T00:06:13;4.07;;;1.95;;
35636;SDS011;21758;43.542;1.462;2022-07-26T00:08:39;6.35;;;1.95;;
35636;SDS011;21758;43.542;1.462;2022-07-26T00:11:05;8.15;;;2.50;;
35636;SDS011;21758;43.542;1.462;2022-07-26T00:13:30;6.07;;;1.65;;
35636;SDS011;21758;43.542;1.462;2022-07-26T00:15:56;6.32;;;1.98;;
35636;SDS011;21758;43.542;1.462;2022-07-26T00:18:22;4.97;;;1.67;;
35636;SDS011;21758;43.542;1.462;2022-07-26T00:20:49;4.32;;;1.77;;
35636;SDS011;21758;43.542;1.462;2022-07-26T00:23:15;6.00;;;1.67;;
35636;SDS011;21758;43.542;1.462;2022-07-26T00:25:43;6.63;;;1.88;;
35636;SDS011;21758;43.542;1.462;2022-07-26T00:28:09;4.45;;;1.98;;
35636;SDS011;21758;43.542;1.462;2022-07-26T00:30:35;7.45;;;2.20;;
35636;SDS011;21758;43.542;1.462;2022-07-26T00:33:00;7.38;;;2.50;;
35636;SDS011;21758;43.542;1.462;2022-07-26T00:35:26;4.97;;;2.05;;
35636;SDS011;21758;43.542;1.462;2022-07-26T00:37:52;6.57;;;2.15;;
35636;SDS011;21758;43.542;1.462;2022-07-26T00:40:17;8.45;;;2.35;;
35636;SDS011;21758;43.542;1.462;2022-07-26T00:42:43;6.35;;;1.95;;
35636;SDS011;21758;43.542;1.462;2022-07-26T00:45:10;5.43;;;2.20;;
35636;SDS011;21758;43.542;1.462;2022-07-26T00:47:37;6.55;;;2.20;;
35636;SDS011;21758;43.542;1.462;2022-07-26T00:50:08;9.68;;;2.42;;
35636;SDS011;21758;43.542;1.462;2022-07-26T00:52:35;6.75;;;2.50;;
35636;SDS011;21758;43.542;1.462;2022-07-26T00:55:02;7.45;;;2.63;;
35636;SDS011;21758;43.542;1.462;2022-07-26T00:57:28;10.80;;;1.95;;
35636;SDS011;21758;43.542;1.462;2022-07-26T00:59:54;8.10;;;2.33;;
35636;SDS011;21758;43.542;1.462;2022-07-26T01:02:20;10.63;;;2.05;;
35636;SDS011;21758;43.542;1.462;2022-07-26T01:04:46;4.97;;;2.50;;
35636;SDS011;21758;43.542;1.462;2022-07-26T01:07:12;7.03;;;2.40;;
35636;SDS011;21758;43.542;1.462;2022-07-26T01:09:38;5.97;;;2.00;;
35636;SDS011;21758;43.542;1.462;2022-07-26T01:12:04;9.40;;;2.45;;
35636;SDS011;21758;43.542;1.462;2022-07-26T01:14:30;4.10;;;1.98;;
35636;SDS011;21758;43.542;1.462;2022-07-26T01:16:56;8.43;;;2.35;;
35636;SDS011;21758;43.542;1.462;2022-07-26T01:19:22;7.35;;;2.40;;
35636;SDS011;21758;43.542;1.462;2022-07-26T01:21:48;7.97;;;2.30;;
35636;SDS011;21758;43.542;1.462;2022-07-26T01:24:15;6.00;;;2.13;;
35636;SDS011;21758;43.542;1.462;2022-07-26T01:26:41;8.15;;;2.58;;
35636;SDS011;21758;43.542;1.462;2022-07-26T01:29:07;5.68;;;2.35;;
35636;SDS011;21758;43.542;1.462;2022-07-26T01:31:32;8.50;;;2.35;;
35636;SDS011;21758;43.542;1.462;2022-07-26T01:33:58;5.47;;;2.35;;
35636;SDS011;21758;43.542;1.462;2022-07-26T01:36:24;6.40;;;2.30;;
35636;SDS011;21758;43.542;1.462;2022-07-26T01:38:49;8.23;;;2.60;;
35636;SDS011;21758;43.542;1.462;2022-07-26T01:41:15;7.13;;;2.40;;
35636;SDS011;21758;43.542;1.462;2022-07-26T01:43:41;6.93;;;2.30;;
35636;SDS011;21758;43.542;1.462;2022-07-26T01:46:07;8.55;;;2.28;;
35636;SDS011;21758;43.542;1.462;2022-07-26T01:48:34;13.35;;;3.00;;
35636;SDS011;21758;43.542;1.462;2022-07-26T01:51:00;9.93;;;2.50;;
35636;SDS011;21758;43.542;1.462;2022-07-26T01:53:27;3.72;;;1.92;;
35636;SDS011;21758;43.542;1.462;2022-07-26T01:55:52;11.23;;;2.70;;
35636;SDS011;21758;43.542;1.462;2022-07-26T01:58:18;9.48;;;2.80;;
35636;SDS011;21758;43.542;1.462;2022-07-26T02:00:44;7.00;;;2.60;;
35636;SDS011;21758;43.542;1.462;2022-07-26T02:03:10;9.50;;;3.08;;
35636;SDS011;21758;43.542;1.462;2022-07-26T02:05:36;7.90;;;2.33;;
35636;SDS011;21758;43.542;1.462;2022-07-26T02:08:02;7.32;;;2.75;;
35636;SDS011;21758;43.542;1.462;2022-07-26T02:10:27;9.13;;;2.58;;
35636;SDS011;21758;43.542;1.462;2022-07-26T02:13:12;9.35;;;2.63;;
35636;SDS011;21758;43.542;1.462;2022-07-26T02:15:38;7.95;;;2.65;;
35636;SDS011;21758;43.542;1.462;2022-07-26T02:18:04;9.65;;;2.78;;
35636;SDS011;21758;43.542;1.462;2022-07-26T02:20:30;5.72;;;2.33;;
35636;SDS011;21758;43.542;1.462;2022-07-26T02:22:57;9.43;;;2.95;;
35636;SDS011;21758;43.542;1.462;2022-07-26T02:25:24;7.30;;;2.60;;
35636;SDS011;21758;43.542;1.462;2022-07-26T02:27:50;8.23;;;2.58;;
35636;SDS011;21758;43.542;1.462;2022-07-26T02:30:16;9.55;;;2.47;;
35636;SDS011;21758;43.542;1.462;2022-07-26T02:32:41;7.63;;;2.40;;
35636;SDS011;21758;43.542;1.462;2022-07-26T02:35:08;12.27;;;3.08;;
35636;SDS011;21758;43.542;1.462;2022-07-26T02:37:34;11.20;;;2.63;;
35636;SDS011;21758;43.542;1.462;2022-07-26T02:39:59;11.02;;;2.60;;
35636;SDS011;21758;43.542;1.462;2022-07-26T02:42:26;9.20;;;2.45;;
35636;SDS011;21758;43.542;1.462;2022-07-26T02:44:52;5.45;;;2.67;;
35636;SDS011;21758;43.542;1.462;2022-07-26T02:47:18;6.78;;;2.70;;
35636;SDS011;21758;43.542;1.462;2022-07-26T02:49:44;6.85;;;2.47;;
35636;SDS011;21758;43.542;1.462;2022-07-26T02:52:09;13.82;;;3.00;;
35636;SDS011;21758;43.542;1.462;2022-07-26T02:54:35;11.10;;;2.90;;
35636;SDS011;21758;43.542;1.462;2022-07-26T02:57:01;9.50;;;2.22;;
35636;SDS011;21758;43.542;1.462;2022-07-26T02:59:26;8.27;;;2.45;;
35636;SDS011;21758;43.542;1.462;2022-07-26T03:01:52;6.85;;;2.60;;
35636;SDS011;21758;43.542;1.462;2022-07-26T03:04:18;6.18;;;2.08;;
35636;SDS011;21758;43.542;1.462;2022-07-26T03:06:44;4.95;;;2.35;;
35636;SDS011;21758;43.542;1.462;2022-07-26T03:09:09;7.53;;;2.38;;
35636;SDS011;21758;43.542;1.462;2022-07-26T03:11:35;8.45;;;2.72;;
35636;SDS011;21758;43.542;1.462;2022-07-26T03:14:01;9.73;;;2.60;;
35636;SDS011;21758;43.542;1.462;2022-07-26T03:16:26;6.03;;;2.33;;
35636;SDS011;21758;43.542;1.462;2022-07-26T03:18:52;9.88;;;2.50;;
35636;SDS011;21758;43.542;1.462;2022-07-26T03:21:18;9.90;;;2.17;;
35636;SDS011;21758;43.542;1.462;2022-07-26T03:23:43;9.52;;;2.88;;
35636;SDS011;21758;43.542;1.462;2022-07-26T03:26:09;11.02;;;2.70;;
35636;SDS011;21758;43.542;1.462;2022-07-26T03:28:35;10.07;;;2.67;;
35636;SDS011;21758;43.542;1.462;2022-07-26T03:31:01;8.95;;;2.50;;
35636;SDS011;21758;43.542;1.462;2022-07-26T03:33:27;6.78;;;2.42;;
35636;SDS011;21758;43.542;1.462;2022-07-26T03:35:53;10.20;;;2.50;;
35636;SDS011;21758;43.542;1.462;2022-07-26T03:38:19;10.70;;;2.78;;
35636;SDS011;21758;43.542;1.462;2022-07-26T03:40:44;10.50;;;2.50;;
35636;SDS011;21758;43.542;1.462;2022-07-26T03:43:10;10.13;;;2.35;;
35636;SDS011;21758;43.542;1.462;2022-07-26T03:45:35;6.00;;;2.63;;
35636;SDS011;21758;43.542;1.462;2022-07-26T03:48:01;9.38;;;2.97;;
35636;SDS011;21758;43.542;1.462;2022-07-26T03:50:27;8.23;;;2.53;;
35636;SDS011;21758;43.542;1.462;2022-07-26T03:52:53;6.22;;;2.88;;
35636;SDS011;21758;43.542;1.462;2022-07-26T03:55:18;6.68;;;2.60;;
35636;SDS011;21758;43.542;1.462;2022-07-26T03:58:03;11.32;;;2.90;;
35636;SDS011;21758;43.542;1.462;2022-07-26T04:00:28;8.77;;;2.80;;
35636;SDS011;21758;43.542;1.462;2022-07-26T04:02:54;9.75;;;2.80;;
35636;SDS011;21758;43.542;1.462;2022-07-26T04:05:19;9.77;;;2.95;;
35636;SDS011;21758;43.542;1.462;2022-07-26T04:07:45;9.73;;;2.58;;
35636;SDS011;21758;43.542;1.462;2022-07-26T04:10:12;10.20;;;3.08;;
35636;SDS011;21758;43.542;1.462;2022-07-26T04:12:39;7.47;;;2.53;;
35636;SDS011;21758;43.542;1.462;2022-07-26T04:15:05;12.45;;;3.38;;
35636;SDS011;21758;43.542;1.462;2022-07-26T04:17:35;8.00;;;2.58;;
35636;SDS011;21758;43.542;1.462;2022-07-26T04:20:04;9.15;;;2.70;;
35636;SDS011;21758;43.542;1.462;2022-07-26T04:22:32;12.75;;;2.72;;
35636;SDS011;21758;43.542;1.462;2022-07-26T04:24:59;13.60;;;2.53;;
35636;SDS011;21758;43.542;1.462;2022-07-26T04:27:25;8.45;;;2.72;;
35636;SDS011;21758;43.542;1.462;2022-07-26T04:29:51;7.93;;;2.35;;
35636;SDS011;21758;43.542;1.462;2022-07-26T04:32:16;10.27;;;2.83;;
35636;SDS011;21758;43.542;1.462;2022-07-26T04:34:42;8.13;;;2.40;;
35636;SDS011;21758;43.542;1.462;2022-07-26T04:37:07;11.82;;;2.50;;
35636;SDS011;21758;43.542;1.462;2022-07-26T04:39:33;9.38;;;2.30;;
35636;SDS011;21758;43.542;1.462;2022-07-26T04:41:59;11.52;;;2.88;;
35636;SDS011;21758;43.542;1.462;2022-07-26T04:44:24;10.20;;;2.35;;
35636;SDS011;21758;43.542;1.462;2022-07-26T04:46:50;11.77;;;2.70;;
35636;SDS011;21758;43.542;1.462;2022-07-26T04:49:16;9.15;;;2.83;;
35636;SDS011;21758;43.542;1.462;2022-07-26T04:51:41;11.80;;;2.95;;
35636;SDS011;21758;43.542;1.462;2022-07-26T04:54:07;8.98;;;3.03;;
35636;SDS011;21758;43.542;1.462;2022-07-26T04:56:32;6.47;;;2.53;;
35636;SDS011;21758;43.542;1.462;2022-07-26T04:58:58;6.88;;;2.25;;
35636;SDS011;21758;43.542;1.462;2022-07-26T05:01:24;10.48;;;2.70;;
35636;SDS011;21758;43.542;1.462;2022-07-26T05:03:49;11.15;;;3.03;;
35636;SDS011;21758;43.542;1.462;2022-07-26T05:06:15;14.15;;;2.60;;
35636;SDS011;21758;43.542;1.462;2022-07-26T05:08:41;8.65;;;2.40;;
35636;SDS011;21758;43.542;1.462;2022-07-26T05:11:07;9.32;;;3.08;;
35636;SDS011;21758;43.542;1.462;2022-07-26T05:13:33;21.95;;;3.10;;
35636;SDS011;21758;43.542;1.462;2022-07-26T05:15:59;12.20;;;2.97;;
35636;SDS011;21758;43.542;1.462;2022-07-26T05:18:24;12.40;;;2.75;;
35636;SDS011;21758;43.542;1.462;2022-07-26T05:20:51;11.20;;;2.67;;
35636;SDS011;21758;43.542;1.462;2022-07-26T05:23:17;11.65;;;3.00;;
35636;SDS011;21758;43.542;1.462;2022-07-26T05:25:44;7.15;;;2.20;;
35636;SDS011;21758;43.542;1.462;2022-07-26T05:28:10;10.25;;;2.50;;
35636;SDS011;21758;43.542;1.462;2022-07-26T05:30:35;9.88;;;2.80;;
35636;SDS011;21758;43.542;1.462;2022-07-26T05:33:01;10.13;;;2.50;;
35636;SDS011;21758;43.542;1.462;2022-07-26T05:35:27;11.07;;;2.95;;
35636;SDS011;21758;43.542;1.462;2022-07-26T05:37:53;8.10;;;3.00;;
35636;SDS011;21758;43.542;1.462;2022-07-26T05:40:18;6.40;;;2.22;;
35636;SDS011;21758;43.542;1.462;2022-07-26T05:42:44;12.30;;;2.67;;
35636;SDS011;21758;43.542;1.462;2022-07-26T05:45:10;6.25;;;2.15;;
35636;SDS011;21758;43.542;1.462;2022-07-26T05:47:36;6.65;;;2.13;;
35636;SDS011;21758;43.542;1.462;2022-07-26T05:50:02;8.18;;;2.03;;
35636;SDS011;21758;43.542;1.462;2022-07-26T05:52:29;12.13;;;2.67;;
35636;SDS011;21758;43.542;1.462;2022-07-26T05:54:54;9.18;;;2.00;;
35636;SDS011;21758;43.542;1.462;2022-07-26T05:57:20;7.80;;;2.15;;
35636;SDS011;21758;43.542;1.462;2022-07-26T05:59:46;5.40;;;1.95;;
35636;SDS011;21758;43.542;1.462;2022-07-26T06:02:11;8.93;;;2.42;;
35636;SDS011;21758;43.542;1.462;2022-07-26T06:04:37;8.57;;;2.08;;
35636;SDS011;21758;43.542;1.462;2022-07-26T06:07:03;10.20;;;2.40;;
35636;SDS011;21758;43.542;1.462;2022-07-26T06:09:29;10.05;;;2.17;;
35636;SDS011;21758;43.542;1.462;2022-07-26T06:11:54;16.73;;;2.47;;
35636;SDS011;21758;43.542;1.462;2022-07-26T06:14:20;12.88;;;2.22;;
35636;SDS011;21758;43.542;1.462;2022-07-26T06:16:46;8.80;;;1.98;;
35636;SDS011;21758;43.542;1.462;2022-07-26T06:19:12;10.75;;;2.17;;
35636;SDS011;21758;43.542;1.462;2022-07-26T17:07:27;6.60;;;1.02;;
35636;SDS011;21758;43.542;1.462;2022-07-26T17:09:53;2.72;;;1.10;;
35636;SDS011;21758;43.542;1.462;2022-07-26T17:12:19;2.05;;;0.90;;
35636;SDS011;21758;43.542;1.462;2022-07-26T17:14:46;7.78;;;0.85;;
35636;SDS011;21758;43.542;1.462;2022-07-26T17:17:12;10.75;;;1.30;;
35636;SDS011;21758;43.542;1.462;2022-07-26T17:19:37;1.38;;;0.82;;
35636;SDS011;21758;43.542;1.462;2022-07-26T17:22:03;2.97;;;1.10;;
35636;SDS011;21758;43.542;1.462;2022-07-26T17:24:29;4.53;;;0.70;;
35636;SDS011;21758;43.542;1.462;2022-07-26T17:26:55;3.80;;;1.42;;
35636;SDS011;21758;43.542;1.462;2022-07-26T17:29:21;11.65;;;1.38;;
35636;SDS011;21758;43.542;1.462;2022-07-26T17:31:47;6.30;;;1.17;;
35636;SDS011;21758;43.542;1.462;2022-07-26T17:34:14;1.30;;;0.68;;
35636;SDS011;21758;43.542;1.462;2022-07-26T17:36:40;4.32;;;0.82;;
35636;SDS011;21758;43.542;1.462;2022-07-26T17:39:06;3.38;;;1.30;;
35636;SDS011;21758;43.542;1.462;2022-07-26T17:41:32;2.50;;;0.98;;
35636;SDS011;21758;43.542;1.462;2022-07-26T17:43:57;4.50;;;1.00;;
35636;SDS011;21758;43.542;1.462;2022-07-26T17:46:23;3.53;;;1.00;;
35636;SDS011;21758;43.542;1.462;2022-07-26T17:48:49;2.38;;;1.05;;
35636;SDS011;21758;43.542;1.462;2022-07-26T17:51:15;4.70;;;1.50;;
35636;SDS011;21758;43.542;1.462;2022-07-26T17:53:42;4.97;;;1.30;;
35636;SDS011;21758;43.542;1.462;2022-07-26T17:56:08;7.47;;;1.02;;
35636;SDS011;21758;43.542;1.462;2022-07-26T17:58:35;2.03;;;0.90;;
35636;SDS011;21758;43.542;1.462;2022-07-26T18:01:01;3.22;;;1.08;;
35636;SDS011;21758;43.542;1.462;2022-07-26T18:03:27;8.75;;;1.48;;
35636;SDS011;21758;43.542;1.462;2022-07-26T18:05:53;3.85;;;0.90;;
35636;SDS011;21758;43.542;1.462;2022-07-26T18:08:18;6.43;;;1.00;;
35636;SDS011;21758;43.542;1.462;2022-07-26T18:10:44;4.45;;;1.30;;
35636;SDS011;21758;43.542;1.462;2022-07-26T18:13:10;3.28;;;0.95;;
35636;SDS011;21758;43.542;1.462;2022-07-26T18:15:35;2.67;;;0.90;;
35636;SDS011;21758;43.542;1.462;2022-07-26T18:18:01;4.65;;;1.40;;
35636;SDS011;21758;43.542;1.462;2022-07-26T18:20:27;6.65;;;2.22;;
35636;SDS011;21758;43.542;1.462;2022-07-26T18:22:52;8.65;;;3.35;;
35636;SDS011;21758;43.542;1.462;2022-07-26T18:25:19;8.07;;;3.30;;
35636;SDS011;21758;43.542;1.462;2022-07-26T18:27:45;4.10;;;1.45;;
35636;SDS011;21758;43.542;1.462;2022-07-26T18:30:10;2.65;;;1.05;;
35636;SDS011;21758;43.542;1.462;2022-07-26T18:32:36;6.60;;;1.60;;
35636;SDS011;21758;43.542;1.462;2022-07-26T18:35:02;3.78;;;1.48;;
35636;SDS011;21758;43.542;1.462;2022-07-26T18:37:28;4.82;;;1.40;;
35636;SDS011;21758;43.542;1.462;2022-07-26T18:39:53;5.90;;;1.27;;
35636;SDS011;21758;43.542;1.462;2022-07-26T18:42:19;3.92;;;1.27;;
35636;SDS011;21758;43.542;1.462;2022-07-26T18:44:45;2.35;;;0.90;;
35636;SDS011;21758;43.542;1.462;2022-07-26T18:47:11;2.47;;;0.88;;
35636;SDS011;21758;43.542;1.462;2022-07-26T18:49:36;6.45;;;1.38;;
35636;SDS011;21758;43.542;1.462;2022-07-26T18:52:02;4.95;;;1.35;;
35636;SDS011;21758;43.542;1.462;2022-07-26T18:54:28;3.88;;;1.30;;
35636;SDS011;21758;43.542;1.462;2022-07-26T18:56:54;3.70;;;1.38;;
35636;SDS011;21758;43.542;1.462;2022-07-26T18:59:20;7.05;;;1.30;;
35636;SDS011;21758;43.542;1.462;2022-07-26T19:01:45;4.15;;;1.50;;
35636;SDS011;21758;43.542;1.462;2022-07-26T19:04:11;3.78;;;1.17;;
35636;SDS011;21758;43.542;1.462;2022-07-26T19:06:37;4.88;;;1.50;;
35636;SDS011;21758;43.542;1.462;2022-07-26T19:09:04;6.28;;;1.15;;
35636;SDS011;21758;43.542;1.462;2022-07-26T19:11:30;4.93;;;1.20;;
35636;SDS011;21758;43.542;1.462;2022-07-26T19:13:57;5.03;;;1.58;;
35636;SDS011;21758;43.542;1.462;2022-07-26T19:16:23;8.95;;;1.38;;
35636;SDS011;21758;43.542;1.462;2022-07-26T19:18:49;8.25;;;1.85;;
35636;SDS011;21758;43.542;1.462;2022-07-26T19:21:15;4.50;;;1.30;;
35636;SDS011;21758;43.542;1.462;2022-07-26T19:23:41;6.47;;;1.52;;
35636;SDS011;21758;43.542;1.462;2022-07-26T19:26:07;5.25;;;1.63;;
35636;SDS011;21758;43.542;1.462;2022-07-26T19:28:33;6.05;;;1.70;;
35636;SDS011;21758;43.542;1.462;2022-07-26T19:30:58;5.53;;;1.40;;
35636;SDS011;21758;43.542;1.462;2022-07-26T19:33:24;8.70;;;1.75;;
35636;SDS011;21758;43.542;1.462;2022-07-26T19:35:50;5.38;;;1.98;;
35636;SDS011;21758;43.542;1.462;2022-07-26T19:38:16;8.27;;;1.50;;
35636;SDS011;21758;43.542;1.462;2022-07-26T19:40:42;6.97;;;1.58;;
35636;SDS011;21758;43.542;1.462;2022-07-26T19:43:08;8.15;;;1.70;;
35636;SDS011;21758;43.542;1.462;2022-07-26T19:45:34;5.57;;;1.70;;
35636;SDS011;21758;43.542;1.462;2022-07-26T19:48:00;6.32;;;1.77;;
35636;SDS011;21758;43.542;1.462;2022-07-26T19:50:25;6.75;;;1.58;;
35636;SDS011;21758;43.542;1.462;2022-07-26T19:52:51;13.75;;;1.80;;
35636;SDS011;21758;43.542;1.462;2022-07-26T19:55:17;6.13;;;1.30;;
35636;SDS011;21758;43.542;1.462;2022-07-26T19:57:42;9.77;;;2.03;;
35636;SDS011;21758;43.542;1.462;2022-07-26T20:00:09;5.47;;;1.85;;
35636;SDS011;21758;43.542;1.462;2022-07-26T20:02:35;10.02;;;1.80;;
35636;SDS011;21758;43.542;1.462;2022-07-26T20:05:01;7.05;;;1.80;;
35636;SDS011;21758;43.542;1.462;2022-07-26T20:07:26;4.82;;;1.40;;
35636;SDS011;21758;43.542;1.462;2022-07-26T20:09:52;6.97;;;1.58;;
35636;SDS011;21758;43.542;1.462;2022-07-26T20:12:18;9.57;;;1.95;;
35636;SDS011;21758;43.542;1.462;2022-07-26T20:14:45;8.13;;;1.85;;
35636;SDS011;21758;43.542;1.462;2022-07-26T20:17:11;7.57;;;1.88;;
35636;SDS011;21758;43.542;1.462;2022-07-26T20:19:37;4.00;;;1.40;;
35636;SDS011;21758;43.542;1.462;2022-07-26T20:22:03;8.88;;;2.10;;
35636;SDS011;21758;43.542;1.462;2022-07-26T20:24:28;7.47;;;1.55;;
35636;SDS011;21758;43.542;1.462;2022-07-26T20:26:54;5.03;;;1.40;;
35636;SDS011;21758;43.542;1.462;2022-07-26T20:29:20;7.25;;;2.15;;
35636;SDS011;21758;43.542;1.462;2022-07-26T20:31:45;5.47;;;1.50;;
35636;SDS011;21758;43.542;1.462;2022-07-26T20:34:11;7.10;;;1.90;;
35636;SDS011;21758;43.542;1.462;2022-07-26T20:36:37;6.75;;;2.28;;
35636;SDS011;21758;43.542;1.462;2022-07-26T20:39:03;5.30;;;1.90;;
35636;SDS011;21758;43.542;1.462;2022-07-26T20:41:29;8.40;;;2.05;;
35636;SDS011;21758;43.542;1.462;2022-07-26T20:43:55;5.35;;;1.45;;
35636;SDS011;21758;43.542;1.462;2022-07-26T20:46:21;6.18;;;1.88;;
35636;SDS011;21758;43.542;1.462;2022-07-26T20:48:47;10.13;;;1.50;;
35636;SDS011;21758;43.542;1.462;2022-07-26T20:51:13;4.90;;;1.70;;
35636;SDS011;21758;43.542;1.462;2022-07-26T20:53:39;8.27;;;1.85;;
35636;SDS011;21758;43.542;1.462;2022-07-26T20:56:05;8.10;;;1.70;;
35636;SDS011;21758;43.542;1.462;2022-07-26T20:58:34;8.93;;;1.63;;
35636;SDS011;21758;43.542;1.462;2022-07-26T21:01:00;5.05;;;1.52;;
35636;SDS011;21758;43.542;1.462;2022-07-26T21:03:25;5.40;;;1.38;;
35636;SDS011;21758;43.542;1.462;2022-07-26T21:05:51;7.57;;;1.35;;
35636;SDS011;21758;43.542;1.462;2022-07-26T21:08:17;6.03;;;1.67;;
35636;SDS011;21758;43.542;1.462;2022-07-26T21:10:42;7.43;;;1.48;;
35636;SDS011;21758;43.542;1.462;2022-07-26T21:13:09;6.78;;;2.10;;
35636;SDS011;21758;43.542;1.462;2022-07-26T21:15:35;4.20;;;1.33;;
35636;SDS011;21758;43.542;1.462;2022-07-26T21:18:01;6.32;;;1.63;;
35636;SDS011;21758;43.542;1.462;2022-07-26T21:20:26;4.95;;;1.58;;
35636;SDS011;21758;43.542;1.462;2022-07-26T21:22:52;6.07;;;1.45;;
35636;SDS011;21758;43.542;1.462;2022-07-26T21:25:18;12.85;;;1.80;;
35636;SDS011;21758;43.542;1.462;2022-07-26T21:27:43;6.65;;;1.67;;
35636;SDS011;21758;43.542;1.462;2022-07-26T21:30:09;5.78;;;1.80;;
35636;SDS011;21758;43.542;1.462;2022-07-26T21:32:35;3.67;;;1.25;;
35636;SDS011;21758;43.542;1.462;2022-07-26T21:35:01;4.03;;;1.63;;
35636;SDS011;21758;43.542;1.462;2022-07-26T21:37:27;5.97;;;1.70;;
35636;SDS011;21758;43.542;1.462;2022-07-26T21:39:52;4.97;;;1.48;;
35636;SDS011;21758;43.542;1.462;2022-07-26T21:42:18;5.40;;;1.80;;
35636;SDS011;21758;43.542;1.462;2022-07-26T21:44:43;5.28;;;1.50;;
35636;SDS011;21758;43.542;1.462;2022-07-26T21:47:09;6.13;;;1.40;;
35636;SDS011;21758;43.542;1.462;2022-07-26T21:49:35;6.65;;;1.45;;
35636;SDS011;21758;43.542;1.462;2022-07-26T21:52:01;6.22;;;1.70;;
35636;SDS011;21758;43.542;1.462;2022-07-26T21:54:27;5.93;;;1.80;;
35636;SDS011;21758;43.542;1.462;2022-07-26T21:56:52;6.30;;;1.40;;
35636;SDS011;21758;43.542;1.462;2022-07-26T21:59:18;6.97;;;1.73;;
35636;SDS011;21758;43.542;1.462;2022-07-26T22:01:44;6.45;;;1.60;;
35636;SDS011;21758;43.542;1.462;2022-07-26T22:04:09;4.82;;;1.55;;
35636;SDS011;21758;43.542;1.462;2022-07-26T22:06:35;5.53;;;1.85;;
35636;SDS011;21758;43.542;1.462;2022-07-26T22:09:02;8.75;;;1.80;;
35636;SDS011;21758;43.542;1.462;2022-07-26T22:11:28;5.70;;;1.98;;
35636;SDS011;21758;43.542;1.462;2022-07-26T22:13:54;9.55;;;1.77;;
35636;SDS011;21758;43.542;1.462;2022-07-26T22:16:20;8.20;;;1.55;;
35636;SDS011;21758;43.542;1.462;2022-07-26T22:18:45;5.70;;;1.50;;
35636;SDS011;21758;43.542;1.462;2022-07-26T22:21:11;7.63;;;1.88;;
35636;SDS011;21758;43.542;1.462;2022-07-26T22:23:37;5.53;;;1.70;;
35636;SDS011;21758;43.542;1.462;2022-07-26T22:26:03;8.07;;;2.05;;
35636;SDS011;21758;43.542;1.462;2022-07-26T22:28:30;14.00;;;2.63;;
35636;SDS011;21758;43.542;1.462;2022-07-26T22:30:56;3.78;;;1.60;;
35636;SDS011;21758;43.542;1.462;2022-07-26T22:33:23;6.90;;;1.60;;
35636;SDS011;21758;43.542;1.462;2022-07-26T22:35:49;6.25;;;2.00;;
35636;SDS011;21758;43.542;1.462;2022-07-26T22:38:15;5.47;;;1.48;;
35636;SDS011;21758;43.542;1.462;2022-07-26T22:40:41;6.28;;;2.33;;
35636;SDS011;21758;43.542;1.462;2022-07-26T22:43:08;7.80;;;1.90;;
35636;SDS011;21758;43.542;1.462;2022-07-26T22:45:35;7.90;;;1.60;;
35636;SDS011;21758;43.542;1.462;2022-07-26T22:48:02;6.25;;;2.05;;
35636;SDS011;21758;43.542;1.462;2022-07-26T22:50:28;7.57;;;1.85;;
35636;SDS011;21758;43.542;1.462;2022-07-26T22:52:54;5.18;;;1.95;;
35636;SDS011;21758;43.542;1.462;2022-07-26T22:55:20;5.18;;;1.63;;
35636;SDS011;21758;43.542;1.462;2022-07-26T22:57:46;5.65;;;1.48;;
35636;SDS011;21758;43.542;1.462;2022-07-26T23:00:13;10.07;;;2.20;;
35636;SDS011;21758;43.542;1.462;2022-07-26T23:02:40;7.25;;;2.40;;
35636;SDS011;21758;43.542;1.462;2022-07-26T23:05:06;9.85;;;1.90;;
35636;SDS011;21758;43.542;1.462;2022-07-26T23:07:32;6.80;;;1.67;;
35636;SDS011;21758;43.542;1.462;2022-07-26T23:09:58;5.65;;;1.65;;
35636;SDS011;21758;43.542;1.462;2022-07-26T23:12:25;5.22;;;1.70;;
35636;SDS011;21758;43.542;1.462;2022-07-26T23:14:51;4.90;;;1.40;;
35636;SDS011;21758;43.542;1.462;2022-07-26T23:17:17;4.00;;;1.65;;
35636;SDS011;21758;43.542;1.462;2022-07-26T23:19:43;5.93;;;1.90;;
35636;SDS011;21758;43.542;1.462;2022-07-26T23:22:09;6.53;;;1.58;;
35636;SDS011;21758;43.542;1.462;2022-07-26T23:24:35;8.75;;;1.92;;
35636;SDS011;21758;43.542;1.462;2022-07-26T23:27:01;9.63;;;2.00;;
35636;SDS011;21758;43.542;1.462;2022-07-26T23:29:27;9.15;;;1.90;;
35636;SDS011;21758;43.542;1.462;2022-07-26T23:31:52;5.80;;;1.67;;
35636;SDS011;21758;43.542;1.462;2022-07-26T23:34:18;8.50;;;1.67;;
35636;SDS011;21758;43.542;1.462;2022-07-26T23:36:43;12.43;;;1.83;;
35636;SDS011;21758;43.542;1.462;2022-07-26T23:39:09;7.80;;;2.35;;
35636;SDS011;21758;43.542;1.462;2022-07-26T23:41:35;9.05;;;2.10;;
35636;SDS011;21758;43.542;1.462;2022-07-26T23:44:01;6.57;;;1.75;;
35636;SDS011;21758;43.542;1.462;2022-07-26T23:46:27;7.57;;;2.03;;
35636;SDS011;21758;43.542;1.462;2022-07-26T23:48:53;8.70;;;2.50;;
35636;SDS011;21758;43.542;1.462;2022-07-26T23:51:19;6.18;;;1.73;;
35636;SDS011;21758;43.542;1.462;2022-07-26T23:53:45;6.32;;;1.58;;
35636;SDS011;21758;43.542;1.462;2022-07-26T23:56:11;5.47;;;1.58;;
35636;SDS011;21758;43.542;1.462;2022-07-26T23:58:37;4.47;;;1.60;;
